createdAt,value
2019-02-09T00:00:17.986Z,70.17
2019-02-09T00:01:17.995Z,69.93
2019-02-09T00:02:17.963Z,69.96
2019-02-09T00:03:17.952Z,70.04
2019-02-09T00:04:17.950Z,69.31
2019-02-09T00:05:17.932Z,69.62
2019-02-09T00:06:17.929Z,69.62
2019-02-09T00:07:17.907Z,69.31
2019-02-09T00:08:17.894Z,69.42
2019-02-09T00:09:17.886Z,69.21
2019-02-09T00:10:17.899Z,70.04
2019-02-09T00:11:17.874Z,69.93
2019-02-09T00:12:17.870Z,69.86
2019-02-09T00:13:17.840Z,70.28
2019-02-09T00:14:17.833Z,69.93
2019-02-09T00:15:17.817Z,70.24
2019-02-09T00:16:17.829Z,69.83
2019-02-09T00:17:17.805Z,69.62
2019-02-09T00:18:17.783Z,69.62
2019-02-09T00:19:17.774Z,69.83
2019-02-09T00:20:17.763Z,70.14
2019-02-09T00:21:17.771Z,69.83
2019-02-09T00:22:17.741Z,69.83
2019-02-09T00:23:17.727Z,69.93
2019-02-09T00:24:17.721Z,70.24
2019-02-09T00:25:17.704Z,70.24
2019-02-09T00:26:17.707Z,69.42
2019-02-09T00:27:17.683Z,69.73
2019-02-09T00:28:17.676Z,69.42
2019-02-09T00:29:17.660Z,69.42
2019-02-09T00:30:17.648Z,69.11
2019-02-09T00:31:17.649Z,69.73
2019-02-09T00:32:17.630Z,69.52
2019-02-09T00:33:17.615Z,69.42
2019-02-09T00:34:17.604Z,69.52
2019-02-09T00:35:17.594Z,70.55
2019-02-09T00:36:17.591Z,69.52
2019-02-09T00:37:17.571Z,69.11
2019-02-09T00:38:17.562Z,68.80
2019-02-09T00:39:17.547Z,68.70
2019-02-09T00:40:17.536Z,68.56
2019-02-09T00:41:17.558Z,68.39
2019-02-09T00:42:17.517Z,68.05
2019-02-09T00:43:17.510Z,68.25
2019-02-09T00:44:17.493Z,67.84
2019-02-09T00:45:17.480Z,66.40
2019-02-09T00:46:17.479Z,66.61
2019-02-09T00:47:17.457Z,67.33
2019-02-09T00:48:17.445Z,67.09
2019-02-09T00:49:17.435Z,67.60
2019-02-09T00:50:17.422Z,66.58
2019-02-09T00:51:17.449Z,66.67
2019-02-09T00:52:17.401Z,66.88
2019-02-09T00:53:17.392Z,66.67
2019-02-09T00:54:17.389Z,66.58
2019-02-09T00:55:17.366Z,66.58
2019-02-09T00:56:17.358Z,66.67
2019-02-09T00:57:17.359Z,66.67
2019-02-09T00:58:17.335Z,66.75
2019-02-09T00:59:17.323Z,66.54
2019-02-09T01:00:17.316Z,66.64
2019-02-09T01:01:17.304Z,66.13
2019-02-09T01:02:17.315Z,66.13
2019-02-09T01:03:17.295Z,66.44
2019-02-09T01:04:17.269Z,66.64
2019-02-09T01:05:17.255Z,66.34
2019-02-09T01:06:17.243Z,68.08
2019-02-09T01:07:17.246Z,67.68
2019-02-09T01:08:17.223Z,66.34
2019-02-09T01:09:17.210Z,66.99
2019-02-09T01:10:17.218Z,66.67
2019-02-09T01:11:17.188Z,66.64
2019-02-09T01:12:17.193Z,66.75
2019-02-09T01:13:17.166Z,66.13
2019-02-09T01:14:17.161Z,66.03
2019-02-09T01:15:17.147Z,66.64
2019-02-09T01:16:17.134Z,66.64
2019-02-09T01:17:17.131Z,66.54
2019-02-09T01:18:17.111Z,66.75
2019-02-09T01:19:17.105Z,65.92
2019-02-09T01:20:17.089Z,66.75
2019-02-09T01:21:17.074Z,66.64
2019-02-09T01:22:17.078Z,66.24
2019-02-09T01:23:17.056Z,65.92
2019-02-09T01:24:17.040Z,65.83
2019-02-09T01:25:17.032Z,66.03
2019-02-09T01:26:17.023Z,66.85
2019-02-09T01:27:17.035Z,66.44
2019-02-09T01:28:17.008Z,66.75
2019-02-09T01:29:16.984Z,66.96
2019-02-09T01:30:16.976Z,67.26
2019-02-09T01:31:16.981Z,67.78
2019-02-09T01:32:16.965Z,67.88
2019-02-09T01:33:16.938Z,66.34
2019-02-09T01:34:16.946Z,67.68
2019-02-09T01:35:16.922Z,68.08
2019-02-09T01:36:16.910Z,67.57
2019-02-09T01:37:16.919Z,68.08
2019-02-09T01:38:16.882Z,68.02
2019-02-09T01:39:16.872Z,67.88
2019-02-09T01:40:16.861Z,68.32
2019-02-09T01:41:16.853Z,68.50
2019-02-09T01:42:16.847Z,67.88
2019-02-09T01:43:16.839Z,68.74
2019-02-09T01:44:16.815Z,69.56
2019-02-09T01:45:16.813Z,70.18
2019-02-09T01:46:16.797Z,70.28
2019-02-09T01:47:16.785Z,71.20
2019-02-09T01:48:16.782Z,70.59
2019-02-09T01:49:16.760Z,70.48
2019-02-09T01:50:16.756Z,70.83
2019-02-09T01:51:16.742Z,72.27
2019-02-09T01:52:16.725Z,71.96
2019-02-09T01:53:16.724Z,72.78
2019-02-09T01:54:16.703Z,73.13
2019-02-09T01:55:16.694Z,73.02
2019-02-09T01:56:16.682Z,73.95
2019-02-09T01:57:16.723Z,73.85
2019-02-09T01:58:16.677Z,75.08
2019-02-09T01:59:16.651Z,74.46
2019-02-09T02:00:16.637Z,75.08
2019-02-09T02:01:16.629Z,75.01
2019-02-09T02:02:16.623Z,75.90
2019-02-09T02:03:16.623Z,76.56
2019-02-09T02:04:16.593Z,77.69
2019-02-09T02:05:16.592Z,77.90
2019-02-09T02:06:16.568Z,77.59
2019-02-09T02:07:16.556Z,77.83
2019-02-09T02:08:16.557Z,78.66
2019-02-09T02:09:16.558Z,78.97
2019-02-09T02:10:16.524Z,79.79
2019-02-09T02:11:16.511Z,79.79
2019-02-09T02:12:16.505Z,80.62
2019-02-09T02:13:16.499Z,81.07
2019-02-09T02:14:16.483Z,80.24
2019-02-09T02:15:16.470Z,81.17
2019-02-09T02:16:16.465Z,81.27
2019-02-09T02:17:16.444Z,82.20
2019-02-09T02:18:16.442Z,82.51
2019-02-09T02:19:16.421Z,81.89
2019-02-09T02:20:16.409Z,82.61
2019-02-09T02:21:16.400Z,82.86
2019-02-09T02:22:16.396Z,83.06
2019-02-09T02:23:16.404Z,83.78
2019-02-09T02:24:16.364Z,84.61
2019-02-09T02:25:16.358Z,85.44
2019-02-09T02:26:16.344Z,85.33
2019-02-09T02:27:16.331Z,86.51
2019-02-09T02:28:16.334Z,86.05
2019-02-09T02:29:16.312Z,86.57
2019-02-09T02:30:22.530Z,86.51
2019-02-09T02:31:17.286Z,87.02
2019-02-09T02:32:16.282Z,86.88
2019-02-09T02:33:16.282Z,88.26
2019-02-09T02:34:16.250Z,87.44
2019-02-09T02:35:16.244Z,88.26
2019-02-09T02:36:16.231Z,87.65
2019-02-09T02:37:16.222Z,87.95
2019-02-09T02:38:16.215Z,88.16
2019-02-09T02:39:16.211Z,88.31
2019-02-09T02:40:16.184Z,88.37
2019-02-09T02:41:16.179Z,88.57
2019-02-09T02:42:16.168Z,88.89
2019-02-09T02:43:16.148Z,88.89
2019-02-09T02:44:16.149Z,88.98
2019-02-09T02:45:16.127Z,89.03
2019-02-09T02:46:16.115Z,89.19
2019-02-09T02:47:16.110Z,88.89
2019-02-09T02:48:16.094Z,89.71
2019-02-09T02:49:16.101Z,90.37
2019-02-09T02:50:16.072Z,90.64
2019-02-09T02:51:16.061Z,90.37
2019-02-09T02:52:16.050Z,90.06
2019-02-09T02:53:16.580Z,90.78
2019-02-09T02:54:16.035Z,89.71
2019-02-09T02:55:16.020Z,90.33
2019-02-09T02:56:16.002Z,90.53
2019-02-09T02:57:15.994Z,90.64
2019-02-09T02:58:15.982Z,90.84
2019-02-09T02:59:15.988Z,90.95
2019-02-09T03:00:15.957Z,91.16
2019-02-09T03:01:15.954Z,91.05
2019-02-09T03:02:15.945Z,91.16
2019-02-09T03:03:15.931Z,91.77
2019-02-09T03:04:15.922Z,90.64
2019-02-09T03:05:15.905Z,90.84
2019-02-09T03:06:15.894Z,91.26
2019-02-09T03:07:15.879Z,90.59
2019-02-09T03:08:15.875Z,91.26
2019-02-09T03:09:15.866Z,91.88
2019-02-09T03:10:15.848Z,91.46
2019-02-09T03:11:15.835Z,91.36
2019-02-09T03:12:15.822Z,90.91
2019-02-09T03:13:15.813Z,90.91
2019-02-09T03:14:15.833Z,91.46
2019-02-09T03:15:15.800Z,91.88
2019-02-09T03:16:15.778Z,91.46
2019-02-09T03:17:15.765Z,91.46
2019-02-09T03:18:15.757Z,91.42
2019-02-09T03:19:15.744Z,91.98
2019-02-09T03:20:15.747Z,92.50
2019-02-09T03:21:15.722Z,92.19
2019-02-09T03:22:15.712Z,92.80
2019-02-09T03:23:15.700Z,92.70
2019-02-09T03:24:15.692Z,91.88
2019-02-09T03:25:15.690Z,92.60
2019-02-09T03:26:15.669Z,92.29
2019-02-09T03:27:15.655Z,92.50
2019-02-09T03:28:15.646Z,92.66
2019-02-09T03:29:15.634Z,92.50
2019-02-09T03:30:15.650Z,92.50
2019-02-09T03:31:15.625Z,92.40
2019-02-09T03:32:15.628Z,92.70
2019-02-09T03:33:15.593Z,92.60
2019-02-09T03:34:15.578Z,92.70
2019-02-09T03:35:15.579Z,92.50
2019-02-09T03:36:15.558Z,92.50
2019-02-09T03:37:15.546Z,92.08
2019-02-09T03:38:15.531Z,91.77
2019-02-09T03:39:15.522Z,92.80
2019-02-09T03:40:15.523Z,92.50
2019-02-09T03:41:16.134Z,92.80
2019-02-09T03:42:15.487Z,92.40
2019-02-09T03:43:15.480Z,92.70
2019-02-09T03:44:15.470Z,92.08
2019-02-09T03:45:15.484Z,92.60
2019-02-09T03:46:15.442Z,92.50
2019-02-09T03:47:15.435Z,92.40
2019-02-09T03:48:15.419Z,92.80
2019-02-09T03:49:15.407Z,92.60
2019-02-09T03:50:15.396Z,92.50
2019-02-09T03:51:15.394Z,92.50
2019-02-09T03:52:15.370Z,92.80
2019-02-09T03:53:15.364Z,92.80
2019-02-09T03:54:15.353Z,92.50
2019-02-09T03:55:15.350Z,92.70
2019-02-09T03:56:15.347Z,91.98
2019-02-09T03:57:15.315Z,91.56
2019-02-09T03:58:15.305Z,91.73
2019-02-09T03:59:15.299Z,91.88
2019-02-09T04:00:15.304Z,91.77
2019-02-09T04:01:15.279Z,91.46
2019-02-09T04:02:15.262Z,91.67
2019-02-09T04:03:15.248Z,91.77
2019-02-09T04:04:15.240Z,90.95
2019-02-09T04:05:15.227Z,90.95
2019-02-09T04:06:15.232Z,91.16
2019-02-09T04:07:15.205Z,91.26
2019-02-09T04:08:15.191Z,91.16
2019-02-09T04:09:15.182Z,91.26
2019-02-09T04:10:15.176Z,90.74
2019-02-09T04:11:15.177Z,90.84
2019-02-09T04:12:15.152Z,91.05
2019-02-09T04:13:15.143Z,90.64
2019-02-09T04:14:15.126Z,90.43
2019-02-09T04:15:15.130Z,90.33
2019-02-09T04:16:15.113Z,90.84
2019-02-09T04:17:15.092Z,90.84
2019-02-09T04:18:15.086Z,90.84
2019-02-09T04:19:15.082Z,90.64
2019-02-09T04:20:15.057Z,91.16
2019-02-09T04:21:15.067Z,90.53
2019-02-09T04:22:15.040Z,90.84
2019-02-09T04:23:15.061Z,90.84
2019-02-09T04:24:15.013Z,90.74
2019-02-09T04:25:15.004Z,90.64
2019-02-09T04:26:15.004Z,90.84
2019-02-09T04:27:14.983Z,90.43
2019-02-09T04:28:14.983Z,90.33
2019-02-09T04:29:14.956Z,90.80
2019-02-09T04:30:14.950Z,90.43
2019-02-09T04:31:14.947Z,90.28
2019-02-09T04:32:14.925Z,90.59
2019-02-09T04:33:14.919Z,90.49
2019-02-09T04:34:14.936Z,90.19
2019-02-09T04:35:14.896Z,90.19
2019-02-09T04:36:14.881Z,89.67
2019-02-09T04:37:14.878Z,89.25
2019-02-09T04:38:14.861Z,89.25
2019-02-09T04:39:14.852Z,88.84
2019-02-09T04:40:14.840Z,89.11
2019-02-09T04:41:14.829Z,89.15
2019-02-09T04:42:14.833Z,88.80
2019-02-09T04:43:14.808Z,88.84
2019-02-09T04:44:14.793Z,88.64
2019-02-09T04:45:14.777Z,88.90
2019-02-09T04:46:14.769Z,89.05
2019-02-09T04:47:14.766Z,88.59
2019-02-09T04:48:14.751Z,88.59
2019-02-09T04:49:14.732Z,88.39
2019-02-09T04:50:14.727Z,88.49
2019-02-09T04:51:14.712Z,88.59
2019-02-09T04:52:14.708Z,88.70
2019-02-09T04:53:14.688Z,88.39
2019-02-09T04:54:14.677Z,87.98
2019-02-09T04:55:14.668Z,88.29
2019-02-09T04:56:14.655Z,88.24
2019-02-09T04:57:14.657Z,88.18
2019-02-09T04:58:14.635Z,87.98
2019-02-09T04:59:14.620Z,88.24
2019-02-09T05:00:14.613Z,88.59
2019-02-09T05:01:14.600Z,88.45
2019-02-09T05:02:14.604Z,88.35
2019-02-09T05:03:14.580Z,88.49
2019-02-09T05:04:14.567Z,88.35
2019-02-09T05:05:14.552Z,88.14
2019-02-09T05:06:14.546Z,88.45
2019-02-09T05:07:14.549Z,88.56
2019-02-09T05:08:14.522Z,88.14
2019-02-09T05:09:14.529Z,88.35
2019-02-09T05:10:14.503Z,88.24
2019-02-09T05:11:14.486Z,88.45
2019-02-09T05:12:14.480Z,88.65
2019-02-09T05:13:14.475Z,88.92
2019-02-09T05:14:14.450Z,88.56
2019-02-09T05:15:14.448Z,88.45
2019-02-09T05:16:14.428Z,88.45
2019-02-09T05:17:14.423Z,88.76
2019-02-09T05:18:14.417Z,88.86
2019-02-09T05:19:14.397Z,88.96
2019-02-09T05:20:14.383Z,88.92
2019-02-09T05:21:14.371Z,88.72
2019-02-09T05:22:14.363Z,88.76
2019-02-09T05:23:14.364Z,88.51
2019-02-09T05:24:14.336Z,88.72
2019-02-09T05:25:14.335Z,88.41
2019-02-09T05:26:14.316Z,88.20
2019-02-09T05:27:14.305Z,87.90
2019-02-09T05:28:14.302Z,87.99
2019-02-09T05:29:14.281Z,87.85
2019-02-09T05:30:14.269Z,88.17
2019-02-09T05:31:22.633Z,87.51
2019-02-09T05:32:15.244Z,87.19
2019-02-09T05:33:14.244Z,87.96
2019-02-09T05:34:14.226Z,87.30
2019-02-09T05:35:14.216Z,86.99
2019-02-09T05:36:14.205Z,86.68
2019-02-09T05:37:14.190Z,87.19
2019-02-09T05:38:14.188Z,86.27
2019-02-09T05:39:14.167Z,86.27
2019-02-09T05:40:14.160Z,86.37
2019-02-09T05:41:14.144Z,86.79
2019-02-09T05:42:14.134Z,86.27
2019-02-09T05:43:14.131Z,85.65
2019-02-09T05:44:14.110Z,86.23
2019-02-09T05:45:14.101Z,85.10
2019-02-09T05:46:14.093Z,85.30
2019-02-09T05:47:14.083Z,85.20
2019-02-09T05:48:14.078Z,84.89
2019-02-09T05:49:14.055Z,85.20
2019-02-09T05:50:14.042Z,84.58
2019-02-09T05:51:14.034Z,84.48
2019-02-09T05:52:14.020Z,84.48
2019-02-09T05:53:14.021Z,84.23
2019-02-09T05:54:14.001Z,84.23
2019-02-09T05:55:13.990Z,84.95
2019-02-09T05:56:13.979Z,84.44
2019-02-09T05:57:13.965Z,83.83
2019-02-09T05:58:13.967Z,83.41
2019-02-09T05:59:13.942Z,83.51
2019-02-09T06:00:13.935Z,83.62
2019-02-09T06:01:13.922Z,83.51
2019-02-09T06:02:13.912Z,83.62
2019-02-09T06:03:13.928Z,83.41
2019-02-09T06:04:13.889Z,83.31
2019-02-09T06:05:13.877Z,83.72
2019-02-09T06:06:13.863Z,83.72
2019-02-09T06:07:13.853Z,84.03
2019-02-09T06:08:13.849Z,83.83
2019-02-09T06:09:13.844Z,84.03
2019-02-09T06:10:13.817Z,83.62
2019-02-09T06:11:13.808Z,83.92
2019-02-09T06:12:13.795Z,83.72
2019-02-09T06:13:13.788Z,84.03
2019-02-09T06:14:13.790Z,84.44
2019-02-09T06:15:13.784Z,84.03
2019-02-09T06:16:13.751Z,84.75
2019-02-09T06:17:13.740Z,84.44
2019-02-09T06:18:13.729Z,84.95
2019-02-09T06:19:13.726Z,84.54
2019-02-09T06:20:13.713Z,84.44
2019-02-09T06:21:13.694Z,84.75
2019-02-09T06:22:13.683Z,84.64
2019-02-09T06:23:13.676Z,84.85
2019-02-09T06:24:13.671Z,84.95
2019-02-09T06:25:13.649Z,85.71
2019-02-09T06:26:13.637Z,85.10
2019-02-09T06:27:13.632Z,86.33
2019-02-09T06:28:13.615Z,85.92
2019-02-09T06:29:13.618Z,85.92
2019-02-09T06:30:13.596Z,86.33
2019-02-09T06:31:13.583Z,85.92
2019-02-09T06:32:13.572Z,86.23
2019-02-09T06:33:13.560Z,86.23
2019-02-09T06:34:13.568Z,86.13
2019-02-09T06:35:13.544Z,85.41
2019-02-09T06:36:13.530Z,86.33
2019-02-09T06:37:13.519Z,86.23
2019-02-09T06:38:13.504Z,86.02
2019-02-09T06:39:13.508Z,86.23
2019-02-09T06:40:13.493Z,84.89
2019-02-09T06:41:13.473Z,85.20
2019-02-09T06:42:13.458Z,85.82
2019-02-09T06:43:13.448Z,84.99
2019-02-09T06:44:13.447Z,84.69
2019-02-09T06:45:13.424Z,85.20
2019-02-09T06:46:13.415Z,84.27
2019-02-09T06:47:13.412Z,84.38
2019-02-09T06:48:13.393Z,84.69
2019-02-09T06:49:13.395Z,84.38
2019-02-09T06:50:13.372Z,84.69
2019-02-09T06:51:13.355Z,83.65
2019-02-09T06:52:13.352Z,83.83
2019-02-09T06:53:13.379Z,83.76
2019-02-09T06:54:13.341Z,83.04
2019-02-09T06:55:13.311Z,83.00
2019-02-09T06:56:13.314Z,82.48
2019-02-09T06:57:13.292Z,81.76
2019-02-09T06:58:13.282Z,82.28
2019-02-09T06:59:13.267Z,81.35
2019-02-09T07:00:13.266Z,80.74
2019-02-09T07:01:13.249Z,79.88
2019-02-09T07:02:13.233Z,79.26
2019-02-09T07:03:13.230Z,79.26
2019-02-09T07:04:13.215Z,79.26
2019-02-09T07:05:13.210Z,79.57
2019-02-09T07:06:13.195Z,79.26
2019-02-09T07:07:13.179Z,79.47
2019-02-09T07:08:13.169Z,77.89
2019-02-09T07:09:13.161Z,77.48
2019-02-09T07:10:13.160Z,77.48
2019-02-09T07:11:13.130Z,76.82
2019-02-09T07:12:13.119Z,77.03
2019-02-09T07:13:13.109Z,76.72
2019-02-09T07:14:13.101Z,76.93
2019-02-09T07:15:13.098Z,76.21
2019-02-09T07:16:13.087Z,76.21
2019-02-09T07:17:13.065Z,75.93
2019-02-09T07:18:13.052Z,76.31
2019-02-09T07:19:13.041Z,76.93
2019-02-09T07:20:13.050Z,75.80
2019-02-09T07:21:13.021Z,75.80
2019-02-09T07:22:13.015Z,76.10
2019-02-09T07:23:13.000Z,75.90
2019-02-09T07:24:12.986Z,76.21
2019-02-09T07:25:12.985Z,76.00
2019-02-09T07:26:12.972Z,74.77
2019-02-09T07:27:12.950Z,75.18
2019-02-09T07:28:12.943Z,75.18
2019-02-09T07:29:12.930Z,75.49
2019-02-09T07:30:12.926Z,74.77
2019-02-09T07:31:12.908Z,74.67
2019-02-09T07:32:12.895Z,74.46
2019-02-09T07:33:12.883Z,75.08
2019-02-09T07:34:12.877Z,75.29
2019-02-09T07:35:12.873Z,74.98
2019-02-09T07:36:12.850Z,74.05
2019-02-09T07:37:12.841Z,74.46
2019-02-09T07:38:12.835Z,74.46
2019-02-09T07:39:12.819Z,74.43
2019-02-09T07:40:12.823Z,75.08
2019-02-09T07:41:12.800Z,74.77
2019-02-09T07:42:12.782Z,74.46
2019-02-09T07:43:12.772Z,74.26
2019-02-09T07:44:12.761Z,74.98
2019-02-09T07:45:12.764Z,75.80
2019-02-09T07:46:12.738Z,75.29
2019-02-09T07:47:12.731Z,75.90
2019-02-09T07:48:12.720Z,76.10
2019-02-09T07:49:12.704Z,75.49
2019-02-09T07:50:13.230Z,75.49
2019-02-09T07:51:12.686Z,75.29
2019-02-09T07:52:12.672Z,75.38
2019-02-09T07:53:12.662Z,75.38
2019-02-09T07:54:12.653Z,75.90
2019-02-09T07:55:12.636Z,76.10
2019-02-09T07:56:12.639Z,75.25
2019-02-09T07:57:12.618Z,76.00
2019-02-09T07:58:12.603Z,76.62
2019-02-09T07:59:12.592Z,77.13
2019-02-09T08:00:12.580Z,77.65
2019-02-09T08:01:12.579Z,77.23
2019-02-09T08:02:12.558Z,76.72
2019-02-09T08:03:12.547Z,77.34
2019-02-09T08:04:12.535Z,77.23
2019-02-09T08:05:12.530Z,77.03
2019-02-09T08:06:12.524Z,77.23
2019-02-09T08:07:12.501Z,77.23
2019-02-09T08:08:12.492Z,77.13
2019-02-09T08:09:12.479Z,77.85
2019-02-09T08:10:12.467Z,77.95
2019-02-09T08:11:12.478Z,77.85
2019-02-09T08:12:12.445Z,78.16
2019-02-09T08:13:12.447Z,78.36
2019-02-09T08:14:12.433Z,78.06
2019-02-09T08:15:12.411Z,78.06
2019-02-09T08:16:12.411Z,78.06
2019-02-09T08:17:12.390Z,77.95
2019-02-09T08:18:12.378Z,77.85
2019-02-09T08:19:12.368Z,78.06
2019-02-09T08:20:12.355Z,78.06
2019-02-09T08:21:12.354Z,77.85
2019-02-09T08:22:12.332Z,78.06
2019-02-09T08:23:12.325Z,78.27
2019-02-09T08:24:12.316Z,78.47
2019-02-09T08:25:12.299Z,79.19
2019-02-09T08:26:12.300Z,79.39
2019-02-09T08:27:12.302Z,79.94
2019-02-09T08:28:12.263Z,80.63
2019-02-09T08:29:12.255Z,80.97
2019-02-09T08:30:12.247Z,81.59
2019-02-09T08:31:12.244Z,81.59
2019-02-09T08:32:13.067Z,82.20
2019-02-09T08:33:12.209Z,82.10
2019-02-09T08:34:12.195Z,83.33
2019-02-09T08:35:12.185Z,83.58
2019-02-09T08:36:12.189Z,83.78
2019-02-09T08:37:12.164Z,83.37
2019-02-09T08:38:12.152Z,83.27
2019-02-09T08:39:12.144Z,83.27
2019-02-09T08:40:12.130Z,83.48
2019-02-09T08:41:12.126Z,83.37
2019-02-09T08:42:12.107Z,83.68
2019-02-09T08:43:12.102Z,83.68
2019-02-09T08:44:12.099Z,83.58
2019-02-09T08:45:12.072Z,83.37
2019-02-09T08:46:12.105Z,83.78
2019-02-09T08:47:12.054Z,83.37
2019-02-09T08:48:12.051Z,83.27
2019-02-09T08:49:12.030Z,82.71
2019-02-09T08:50:12.016Z,83.03
2019-02-09T08:51:12.005Z,82.71
2019-02-09T08:52:12.006Z,82.10
2019-02-09T08:53:11.992Z,81.86
2019-02-09T08:54:11.971Z,82.37
2019-02-09T08:55:11.961Z,82.51
2019-02-09T08:56:11.948Z,81.96
2019-02-09T08:57:11.952Z,82.17
2019-02-09T08:58:11.926Z,82.47
2019-02-09T08:59:11.920Z,81.45
2019-02-09T09:00:11.904Z,81.55
2019-02-09T09:01:11.891Z,81.45
2019-02-09T09:02:11.890Z,82.06
2019-02-09T09:03:11.869Z,81.76
2019-02-09T09:04:11.858Z,81.45
2019-02-09T09:05:11.856Z,80.63
2019-02-09T09:06:11.835Z,81.04
2019-02-09T09:07:11.842Z,81.04
2019-02-09T09:08:11.819Z,80.32
2019-02-09T09:09:11.803Z,79.60
2019-02-09T09:10:11.792Z,79.60
2019-02-09T09:11:11.784Z,79.80
2019-02-09T09:12:11.803Z,79.70
2019-02-09T09:13:11.766Z,79.91
2019-02-09T09:14:11.751Z,79.80
2019-02-09T09:15:11.734Z,80.93
2019-02-09T09:16:11.724Z,80.28
2019-02-09T09:17:11.736Z,81.00
2019-02-09T09:18:11.706Z,81.41
2019-02-09T09:19:11.689Z,81.65
2019-02-09T09:20:11.680Z,81.55
2019-02-09T09:21:11.668Z,82.27
2019-02-09T09:22:11.677Z,82.57
2019-02-09T09:23:11.648Z,82.78
2019-02-09T09:24:11.635Z,83.50
2019-02-09T09:25:11.622Z,83.61
2019-02-09T09:26:11.614Z,83.40
2019-02-09T09:27:11.600Z,84.63
2019-02-09T09:28:11.604Z,84.32
2019-02-09T09:29:11.577Z,84.42
2019-02-09T09:30:11.570Z,84.63
2019-02-09T09:31:11.557Z,84.32
2019-02-09T09:32:11.549Z,83.46
2019-02-09T09:33:11.558Z,83.05
2019-02-09T09:34:11.522Z,82.64
2019-02-09T09:35:11.509Z,82.23
2019-02-09T09:36:11.498Z,82.03
2019-02-09T09:37:11.488Z,81.62
2019-02-09T09:38:11.490Z,81.00
2019-02-09T09:39:11.464Z,81.41
2019-02-09T09:40:11.458Z,81.51
2019-02-09T09:41:11.448Z,80.79
2019-02-09T09:42:11.432Z,80.35
2019-02-09T09:43:11.429Z,80.55
2019-02-09T09:44:11.412Z,80.24
2019-02-09T09:45:11.398Z,80.24
2019-02-09T09:46:11.387Z,79.63
2019-02-09T09:47:11.376Z,79.42
2019-02-09T09:48:11.380Z,79.42
2019-02-09T09:49:11.358Z,78.91
2019-02-09T09:50:11.350Z,77.98
2019-02-09T09:51:11.341Z,77.44
2019-02-09T09:52:11.320Z,77.23
2019-02-09T09:53:11.327Z,75.28
2019-02-09T09:54:11.299Z,76.10
2019-02-09T09:55:11.286Z,75.90
2019-02-09T09:56:11.276Z,76.00
2019-02-09T09:57:11.264Z,75.15
2019-02-09T09:58:11.286Z,75.45
2019-02-09T09:59:11.245Z,75.04
2019-02-09T10:00:11.233Z,74.53
2019-02-09T10:01:11.219Z,74.32
2019-02-09T10:02:11.211Z,74.12
2019-02-09T10:03:11.209Z,74.22
2019-02-09T10:04:11.189Z,73.71
2019-02-09T10:05:11.174Z,73.10
2019-02-09T10:06:11.164Z,73.40
2019-02-09T10:07:11.155Z,72.99
2019-02-09T10:08:11.169Z,73.06
2019-02-09T10:09:11.129Z,73.27
2019-02-09T10:10:11.117Z,72.07
2019-02-09T10:11:11.106Z,72.65
2019-02-09T10:12:11.097Z,72.65
2019-02-09T10:13:11.097Z,72.75
2019-02-09T10:14:11.083Z,72.96
2019-02-09T10:15:11.065Z,72.68
2019-02-09T10:16:11.054Z,72.24
2019-02-09T10:17:11.098Z,72.65
2019-02-09T10:18:11.031Z,72.24
2019-02-09T10:19:11.027Z,72.14
2019-02-09T10:20:11.005Z,72.03
2019-02-09T10:21:10.993Z,72.44
2019-02-09T10:22:10.983Z,72.03
2019-02-09T10:23:10.975Z,71.93
2019-02-09T10:24:10.974Z,71.62
2019-02-09T10:25:10.951Z,72.24
2019-02-09T10:26:10.938Z,72.14
2019-02-09T10:27:10.929Z,72.14
2019-02-09T10:28:10.914Z,71.49
2019-02-09T10:29:10.914Z,71.59
2019-02-09T10:30:10.895Z,71.59
2019-02-09T10:31:10.885Z,71.69
2019-02-09T10:32:10.870Z,71.52
2019-02-09T10:33:10.860Z,71.32
2019-02-09T10:34:10.855Z,71.08
2019-02-09T10:35:10.848Z,70.87
2019-02-09T10:36:10.823Z,71.18
2019-02-09T10:37:10.812Z,71.39
2019-02-09T10:38:10.803Z,71.18
2019-02-09T10:39:10.802Z,71.18
2019-02-09T10:40:10.788Z,70.26
2019-02-09T10:41:10.770Z,70.36
2019-02-09T10:42:10.755Z,70.87
2019-02-09T10:43:10.754Z,70.36
2019-02-09T10:44:10.755Z,70.16
2019-02-09T10:45:10.721Z,70.57
2019-02-09T10:46:10.709Z,70.57
2019-02-09T10:47:10.696Z,70.36
2019-02-09T10:48:10.689Z,70.77
2019-02-09T10:49:10.686Z,71.18
2019-02-09T10:50:10.667Z,72.72
2019-02-09T10:51:10.652Z,73.54
2019-02-09T10:52:10.648Z,74.90
2019-02-09T10:53:10.631Z,75.59
2019-02-09T10:54:10.633Z,75.82
2019-02-09T10:55:10.632Z,77.26
2019-02-09T10:56:10.596Z,77.67
2019-02-09T10:57:10.587Z,78.02
2019-02-09T10:58:10.579Z,77.91
2019-02-09T10:59:10.594Z,78.02
2019-02-09T11:00:10.562Z,79.45
2019-02-09T11:01:10.538Z,78.42
2019-02-09T11:02:10.534Z,79.55
2019-02-09T11:03:10.523Z,78.53
2019-02-09T11:04:10.504Z,77.23
2019-02-09T11:05:10.507Z,77.81
2019-02-09T11:06:10.494Z,77.84
2019-02-09T11:07:10.469Z,77.13
2019-02-09T11:08:10.460Z,77.09
2019-02-09T11:09:10.466Z,76.72
2019-02-09T11:10:10.449Z,75.96
2019-02-09T11:11:10.427Z,75.24
2019-02-09T11:12:10.415Z,76.17
2019-02-09T11:13:10.411Z,75.86
2019-02-09T11:14:10.394Z,74.77
2019-02-09T11:15:10.475Z,75.66
2019-02-09T11:16:10.373Z,74.84
2019-02-09T11:17:10.358Z,75.15
2019-02-09T11:18:10.356Z,75.24
2019-02-09T11:19:10.342Z,74.90
2019-02-09T11:20:10.336Z,74.60
2019-02-09T11:21:10.312Z,74.49
2019-02-09T11:22:10.300Z,74.29
2019-02-09T11:23:10.292Z,73.33
2019-02-09T11:24:10.278Z,73.23
2019-02-09T11:25:10.280Z,72.61
2019-02-09T11:26:10.314Z,72.52
2019-02-09T11:27:10.247Z,72.72
2019-02-09T11:28:10.238Z,72.07
2019-02-09T11:29:10.223Z,71.97
2019-02-09T11:30:10.224Z,71.86
2019-02-09T11:31:10.280Z,72.17
2019-02-09T11:32:10.188Z,71.15
2019-02-09T11:33:10.177Z,71.86
2019-02-09T11:34:10.166Z,72.20
2019-02-09T11:35:10.171Z,72.52
2019-02-09T11:36:10.154Z,71.97
2019-02-09T11:37:10.153Z,72.38
2019-02-09T11:38:10.124Z,72.17
2019-02-09T11:39:10.112Z,71.45
2019-02-09T11:40:10.152Z,71.53
2019-02-09T11:41:10.087Z,71.73
2019-02-09T11:42:10.074Z,70.61
2019-02-09T11:43:10.064Z,69.99
2019-02-09T11:44:10.054Z,69.85
2019-02-09T11:45:10.043Z,70.16
2019-02-09T11:46:10.039Z,69.55
2019-02-09T11:47:10.016Z,68.22
2019-02-09T11:48:10.006Z,68.08
2019-02-09T11:49:09.994Z,68.49
2019-02-09T11:50:09.993Z,67.57
2019-02-09T11:51:09.996Z,68.08
2019-02-09T11:52:09.961Z,67.68
2019-02-09T11:53:09.954Z,67.34
2019-02-09T11:54:09.940Z,68.05
2019-02-09T11:55:09.930Z,67.57
2019-02-09T11:56:09.927Z,67.47
2019-02-09T11:57:09.906Z,67.68
2019-02-09T11:58:09.893Z,67.78
2019-02-09T11:59:09.883Z,67.47
2019-02-09T12:00:09.877Z,67.88
2019-02-09T12:01:09.870Z,67.47
2019-02-09T12:02:09.850Z,67.88
2019-02-09T12:03:14.915Z,68.19
2019-02-09T12:04:10.828Z,67.78
2019-02-09T12:05:09.814Z,68.49
2019-02-09T12:06:09.814Z,68.39
2019-02-09T12:07:09.796Z,67.88
2019-02-09T12:08:09.779Z,67.91
2019-02-09T12:09:09.775Z,68.08
2019-02-09T12:10:09.756Z,67.78
2019-02-09T12:11:09.759Z,67.57
2019-02-09T12:12:09.740Z,67.50
2019-02-09T12:13:09.725Z,67.78
2019-02-09T12:14:09.715Z,67.40
2019-02-09T12:15:09.707Z,67.60
2019-02-09T12:16:09.700Z,68.42
2019-02-09T12:17:09.680Z,67.71
2019-02-09T12:18:09.672Z,67.30
2019-02-09T12:19:09.661Z,67.81
2019-02-09T12:20:09.652Z,68.01
2019-02-09T12:21:09.648Z,67.60
2019-02-09T12:22:09.627Z,67.81
2019-02-09T12:23:09.615Z,67.60
2019-02-09T12:24:09.600Z,67.81
2019-02-09T12:25:09.589Z,68.01
2019-02-09T12:26:09.576Z,67.50
2019-02-09T12:27:09.583Z,68.01
2019-02-09T12:28:09.555Z,68.01
2019-02-09T12:29:09.549Z,67.50
2019-02-09T12:30:09.535Z,68.22
2019-02-09T12:31:09.521Z,68.22
2019-02-09T12:32:09.520Z,67.60
2019-02-09T12:33:09.497Z,67.91
2019-02-09T12:34:09.486Z,67.81
2019-02-09T12:35:09.481Z,67.91
2019-02-09T12:36:09.465Z,67.88
2019-02-09T12:37:09.462Z,67.37
2019-02-09T12:38:09.445Z,66.25
2019-02-09T12:39:09.445Z,66.14
2019-02-09T12:40:09.424Z,66.04
2019-02-09T12:41:09.409Z,66.45
2019-02-09T12:42:09.411Z,66.04
2019-02-09T12:43:09.389Z,65.63
2019-02-09T12:44:09.375Z,66.17
2019-02-09T12:45:09.371Z,66.99
2019-02-09T12:46:09.350Z,66.28
2019-02-09T12:47:09.354Z,66.28
2019-02-09T12:48:09.332Z,66.28
2019-02-09T12:49:09.321Z,66.28
2019-02-09T12:50:09.305Z,66.89
2019-02-09T12:51:09.295Z,66.58
2019-02-09T12:52:09.296Z,65.97